createdAt,value
2018-09-01T00:00:05.238Z,15.167847
2018-09-01T00:01:21.199Z,15.218201
2018-09-01T00:02:37.160Z,15.328979
2018-09-01T00:03:53.133Z,15.298767
2018-09-01T00:05:09.022Z,15.268555
2018-09-01T00:06:25.002Z,15.288696
2018-09-01T00:07:40.927Z,15.268555
2018-09-01T00:08:57.069Z,15.167847
2018-09-01T00:10:12.979Z,15.117493
2018-09-01T00:11:28.979Z,15.117493
2018-09-01T00:12:45.031Z,15.228271
2018-09-01T00:14:01.043Z,15.258484
2018-09-01T00:15:16.953Z,15.117493
2018-09-01T00:16:32.847Z,15.228271
2018-09-01T00:17:48.784Z,15.258484
2018-09-01T00:19:04.698Z,15.218201
2018-09-01T00:20:20.630Z,15.117493
2018-09-01T00:21:36.636Z,15.097351
2018-09-01T00:22:52.673Z,15.117493
2018-09-01T00:24:08.589Z,15.218201
2018-09-01T00:25:24.617Z,15.218201
2018-09-01T00:26:40.520Z,15.177917
2018-09-01T00:27:56.516Z,15.268555
2018-09-01T00:29:12.546Z,15.318909
2018-09-01T00:30:28.559Z,15.258484
2018-09-01T00:31:44.479Z,15.258484
2018-09-01T00:33:00.437Z,15.288696
2018-09-01T00:34:16.389Z,15.349121
2018-09-01T00:35:32.368Z,15.389404
2018-09-01T00:36:48.281Z,15.288696
2018-09-01T00:38:04.257Z,15.258484
2018-09-01T00:39:20.173Z,15.328979
2018-09-01T00:40:36.081Z,15.318909
2018-09-01T00:41:52.095Z,15.187988
2018-09-01T00:43:07.999Z,15.187988
2018-09-01T00:44:23.974Z,15.228271
2018-09-01T00:45:39.965Z,15.228271
2018-09-01T00:46:55.891Z,15.187988
2018-09-01T00:48:11.958Z,15.268555
2018-09-01T00:49:27.878Z,15.258484
2018-09-01T00:50:43.999Z,15.389404
2018-09-01T00:51:59.990Z,15.349121
2018-09-01T00:53:15.887Z,15.328979
2018-09-01T00:54:31.879Z,15.328979
2018-09-01T00:55:47.830Z,15.439758
2018-09-01T00:57:03.784Z,15.389404
2018-09-01T00:58:19.701Z,15.318909
2018-09-01T00:59:35.687Z,15.318909
2018-09-01T01:00:51.627Z,15.409546
2018-09-01T01:02:07.695Z,15.409546
2018-09-01T01:03:23.795Z,15.359192
2018-09-01T01:04:39.737Z,15.248413
2018-09-01T01:05:56.619Z,15.187988
2018-09-01T01:07:12.523Z,15.147705
2018-09-01T01:08:28.472Z,15.318909
2018-09-01T01:09:44.524Z,15.318909
2018-09-01T01:11:00.439Z,15.349121
2018-09-01T01:12:16.465Z,15.359192
2018-09-01T01:13:32.365Z,15.369263
2018-09-01T01:14:48.279Z,15.298767
2018-09-01T01:16:04.177Z,15.349121
2018-09-01T01:17:20.112Z,15.288696
2018-09-01T01:18:36.122Z,15.187988
2018-09-01T01:19:52.026Z,15.258484
2018-09-01T01:21:08.014Z,15.218201
2018-09-01T01:22:24.088Z,15.177917
2018-09-01T01:23:40.074Z,15.107422
2018-09-01T01:24:56.027Z,15.177917
2018-09-01T01:26:12.024Z,15.328979
2018-09-01T01:27:27.908Z,15.318909
2018-09-01T01:28:43.903Z,15.167847
2018-09-01T01:29:59.828Z,15.187988
2018-09-01T01:31:15.779Z,15.268555
2018-09-01T01:32:31.751Z,15.409546
2018-09-01T01:35:28.167Z,15.328979
2018-09-01T01:36:44.072Z,15.349121
2018-09-01T01:37:59.995Z,15.328979
2018-09-01T01:39:15.913Z,15.359192
2018-09-01T01:40:31.855Z,15.389404
2018-09-01T01:41:47.847Z,15.318909
2018-09-01T01:43:03.745Z,15.318909
2018-09-01T01:44:19.730Z,15.318909
2018-09-01T01:45:35.739Z,15.268555
2018-09-01T01:46:51.630Z,15.218201
2018-09-01T01:48:07.622Z,15.187988
2018-09-01T01:49:23.672Z,15.268555
2018-09-01T01:50:39.599Z,15.298767
2018-09-01T01:51:55.502Z,15.349121
2018-09-01T01:53:11.404Z,15.349121
2018-09-01T01:54:27.415Z,15.318909
2018-09-01T01:55:43.333Z,15.228271
2018-09-01T01:56:59.284Z,15.097351
2018-09-01T01:58:15.266Z,15.077209
2018-09-01T01:59:31.184Z,15.117493
2018-09-01T02:00:47.142Z,14.996643
2018-09-01T02:02:03.126Z,15.016785
2018-09-01T02:03:19.058Z,14.966431
2018-09-01T02:04:34.988Z,15.067139
2018-09-01T02:05:50.998Z,15.077209
2018-09-01T02:07:06.935Z,15.077209
2018-09-01T02:08:22.832Z,15.147705
2018-09-01T02:09:38.815Z,14.986572
2018-09-01T02:10:54.865Z,14.936218
2018-09-01T02:12:10.825Z,14.966431
2018-09-01T02:13:26.885Z,15.077209
2018-09-01T02:16:24.367Z,15.097351
2018-09-01T02:17:40.375Z,15.016785
2018-09-01T02:18:56.332Z,15.036926
2018-09-01T02:20:12.260Z,15.117493
2018-09-01T02:21:28.161Z,14.986572
2018-09-01T02:22:44.238Z,14.95636
2018-09-01T02:24:00.137Z,14.996643
2018-09-01T02:25:16.098Z,15.046997
2018-09-01T02:26:32.170Z,15.097351
2018-09-01T02:27:48.068Z,14.926147
2018-09-01T02:29:04.052Z,14.926147
2018-09-01T02:30:19.997Z,14.996643
2018-09-01T02:31:35.952Z,14.996643
2018-09-01T02:32:51.953Z,14.996643
2018-09-01T02:34:07.852Z,15.067139
2018-09-01T02:35:23.903Z,15.107422
2018-09-01T02:36:39.860Z,14.926147
2018-09-01T02:37:55.852Z,14.986572
2018-09-01T02:39:11.911Z,14.986572
2018-09-01T02:40:27.824Z,14.996643
2018-09-01T02:41:43.797Z,15.036926
2018-09-01T02:42:59.779Z,15.077209
2018-09-01T02:44:15.683Z,14.936218
2018-09-01T02:45:31.716Z,14.95636
2018-09-01T02:46:47.604Z,15.046997
2018-09-01T02:48:03.601Z,15.067139
2018-09-01T02:49:19.552Z,15.077209
2018-09-01T02:50:35.497Z,15.107422
2018-09-01T02:51:51.610Z,15.137634
2018-09-01T02:53:07.522Z,15.117493
2018-09-01T02:54:23.485Z,15.067139
2018-09-01T02:55:39.503Z,15.137634
2018-09-01T02:56:55.397Z,15.167847
2018-09-01T02:58:11.476Z,15.077209
2018-09-01T02:59:27.484Z,15.046997
2018-09-01T03:00:43.408Z,15.107422
2018-09-01T03:01:59.417Z,15.097351
2018-09-01T03:03:15.302Z,15.016785
2018-09-01T03:04:31.300Z,15.036926
2018-09-01T03:05:47.319Z,15.046997
2018-09-01T03:07:03.235Z,15.097351
2018-09-01T03:08:19.228Z,15.097351
2018-09-01T03:09:35.113Z,15.046997
2018-09-01T03:10:51.181Z,15.137634
2018-09-01T03:12:07.088Z,15.077209
2018-09-01T03:13:23.115Z,15.107422
2018-09-01T03:14:39.065Z,15.097351
2018-09-01T03:15:54.982Z,15.097351
2018-09-01T03:17:11.030Z,15.077209
2018-09-01T03:18:27.058Z,15.046997
2018-09-01T03:19:42.946Z,15.077209
2018-09-01T03:20:58.932Z,15.016785
2018-09-01T03:23:55.637Z,15.067139
2018-09-01T03:25:11.547Z,15.067139
2018-09-01T03:26:27.490Z,15.067139
2018-09-01T03:27:43.419Z,15.067139
2018-09-01T03:28:59.382Z,15.067139
2018-09-01T03:30:15.296Z,15.077209
2018-09-01T03:31:31.320Z,15.067139
2018-09-01T03:32:47.268Z,14.926147
2018-09-01T03:34:03.158Z,14.916077
2018-09-01T03:35:19.062Z,14.895935
2018-09-01T03:36:35.044Z,14.885864
2018-09-01T03:37:51.072Z,14.95636
2018-09-01T03:39:07.195Z,14.986572
2018-09-01T03:40:23.103Z,14.986572
2018-09-01T03:41:39.105Z,15.016785
2018-09-01T03:42:55.999Z,15.036926
2018-09-01T03:44:12.047Z,15.117493
2018-09-01T03:45:28.072Z,15.077209
2018-09-01T03:46:44.036Z,14.996643
2018-09-01T03:47:59.940Z,14.936218
2018-09-01T03:49:15.849Z,15.016785
2018-09-01T03:50:31.772Z,14.966431
2018-09-01T03:51:47.672Z,14.916077
2018-09-01T03:53:03.704Z,14.986572
2018-09-01T03:54:19.610Z,14.966431
2018-09-01T03:55:35.627Z,15.016785
2018-09-01T03:56:51.622Z,15.097351
2018-09-01T03:58:07.562Z,15.167847
2018-09-01T03:59:23.613Z,15.117493
2018-09-01T04:00:39.616Z,15.107422
2018-09-01T04:01:55.524Z,15.067139
2018-09-01T04:03:11.414Z,15.036926
2018-09-01T04:04:27.402Z,14.996643
2018-09-01T04:05:43.464Z,15.067139
2018-09-01T04:06:59.577Z,15.117493
2018-09-01T04:08:15.617Z,15.097351
2018-09-01T04:09:31.608Z,15.187988
2018-09-01T04:10:47.639Z,15.016785
2018-09-01T04:12:03.552Z,14.95636
2018-09-01T04:13:19.445Z,14.996643
2018-09-01T04:14:35.361Z,15.167847
2018-09-01T04:15:51.467Z,15.177917
2018-09-01T04:17:07.642Z,15.117493
2018-09-01T04:18:23.669Z,15.046997
2018-09-01T04:19:39.725Z,15.097351
2018-09-01T04:20:55.638Z,15.077209
2018-09-01T04:22:11.536Z,14.986572
2018-09-01T04:23:27.480Z,14.936218
2018-09-01T04:27:40.069Z,15.077209
2018-09-01T04:28:56.044Z,14.996643
2018-09-01T04:30:12.073Z,14.916077
2018-09-01T04:31:27.991Z,14.885864
2018-09-01T04:32:43.884Z,14.855652
2018-09-01T04:33:59.777Z,14.785156
2018-09-01T04:35:15.659Z,14.775085
2018-09-01T04:36:31.646Z,14.885864
2018-09-01T04:37:47.535Z,15.036926
2018-09-01T04:39:03.590Z,14.996643
2018-09-01T04:40:19.596Z,15.097351
2018-09-01T04:41:35.538Z,15.107422
2018-09-01T04:42:51.800Z,15.147705
2018-09-01T04:44:07.689Z,15.167847
2018-09-01T04:45:23.608Z,15.067139
2018-09-01T04:46:39.668Z,15.077209
2018-09-01T04:47:55.567Z,15.187988
2018-09-01T04:49:11.552Z,15.097351
2018-09-01T04:50:27.442Z,15.097351
2018-09-01T04:51:43.355Z,15.167847
2018-09-01T04:54:39.944Z,15.067139
2018-09-01T04:55:55.855Z,15.046997
2018-09-01T04:57:11.876Z,15.036926
2018-09-01T04:58:27.793Z,15.046997
2018-09-01T04:59:43.723Z,15.046997
2018-09-01T05:00:59.820Z,15.167847
2018-09-01T05:02:15.497Z,15.097351
2018-09-01T05:03:31.539Z,15.147705
2018-09-01T05:04:47.780Z,15.137634
2018-09-01T05:06:03.765Z,15.147705
2018-09-01T05:07:19.772Z,15.036926
2018-09-01T05:08:35.674Z,15.036926
2018-09-01T05:09:51.692Z,15.077209
2018-09-01T05:11:07.922Z,15.117493
2018-09-01T05:12:23.850Z,15.137634
2018-09-01T05:13:39.907Z,15.097351
2018-09-01T05:14:56.014Z,15.117493
2018-09-01T05:16:12.146Z,15.107422
2018-09-01T05:17:28.338Z,15.046997
2018-09-01T05:18:44.436Z,15.046997
2018-09-01T05:20:00.404Z,15.016785
2018-09-01T05:21:16.505Z,15.077209
2018-09-01T05:22:32.408Z,15.077209
2018-09-01T05:23:48.345Z,15.036926
2018-09-01T05:25:04.340Z,14.95636
2018-09-01T05:26:20.247Z,15.067139
2018-09-01T05:27:36.298Z,15.077209
2018-09-01T05:28:52.334Z,15.077209
2018-09-01T05:30:08.291Z,15.097351
2018-09-01T05:31:24.427Z,15.046997
2018-09-01T05:32:40.360Z,15.046997
2018-09-01T05:33:56.381Z,15.067139
2018-09-01T05:35:12.419Z,15.137634
2018-09-01T05:36:28.421Z,15.167847
2018-09-01T05:37:44.943Z,15.187988
2018-09-01T05:39:00.873Z,15.147705
2018-09-01T05:40:16.862Z,15.137634
2018-09-01T05:41:32.885Z,15.036926
2018-09-01T05:42:48.837Z,15.097351
2018-09-01T05:44:04.842Z,15.147705
2018-09-01T05:45:20.836Z,15.147705
2018-09-01T05:46:36.789Z,15.107422
2018-09-01T05:47:52.735Z,15.077209
2018-09-01T05:49:08.757Z,15.036926
2018-09-01T05:50:24.779Z,15.046997
2018-09-01T05:51:40.797Z,15.046997
2018-09-01T05:52:56.792Z,14.966431
2018-09-01T05:54:12.899Z,15.046997
2018-09-01T05:55:28.841Z,15.067139
2018-09-01T05:56:44.763Z,15.107422
2018-09-01T05:58:00.739Z,15.107422
2018-09-01T05:59:16.668Z,15.137634
2018-09-01T06:00:32.660Z,15.218201
2018-09-01T06:01:48.705Z,15.228271
2018-09-01T06:03:04.625Z,15.248413
2018-09-01T06:04:20.626Z,15.147705
2018-09-01T06:05:36.748Z,15.167847
2018-09-01T06:06:52.813Z,15.137634
2018-09-01T06:08:08.801Z,15.117493
2018-09-01T06:09:24.935Z,15.147705
2018-09-01T06:10:41.039Z,15.228271
2018-09-01T06:11:56.927Z,15.177917
2018-09-01T06:13:12.939Z,15.117493
2018-09-01T06:14:28.903Z,15.147705
2018-09-01T06:15:44.982Z,15.167847
2018-09-01T06:17:00.919Z,15.167847
2018-09-01T06:18:16.859Z,15.117493
2018-09-01T06:19:32.880Z,15.107422
2018-09-01T06:20:48.811Z,15.107422
2018-09-01T06:22:04.820Z,15.167847
2018-09-01T06:23:20.776Z,15.147705
2018-09-01T06:24:36.715Z,15.167847
2018-09-01T06:27:33.509Z,15.147705
2018-09-01T06:28:49.442Z,15.097351
2018-09-01T06:30:05.450Z,15.187988
2018-09-01T06:31:21.394Z,15.137634
2018-09-01T06:32:37.448Z,15.218201
2018-09-01T06:33:53.453Z,15.248413
2018-09-01T06:35:09.410Z,15.187988
2018-09-01T06:36:25.328Z,15.187988
2018-09-01T06:37:41.403Z,15.147705
2018-09-01T06:38:57.376Z,15.187988
2018-09-01T06:40:13.380Z,15.187988
2018-09-01T06:41:29.492Z,15.218201
2018-09-01T06:42:45.480Z,15.177917
2018-09-01T06:44:01.839Z,15.117493
2018-09-01T06:45:17.755Z,15.107422
2018-09-01T06:46:33.676Z,15.177917
2018-09-01T06:47:49.776Z,15.177917
2018-09-01T06:49:05.736Z,15.187988
2018-09-01T06:50:21.672Z,15.218201
2018-09-01T06:51:37.758Z,15.248413
2018-09-01T06:52:53.622Z,15.228271
2018-09-01T06:54:09.794Z,15.147705
2018-09-01T06:57:06.237Z,15.288696
2018-09-01T06:58:22.341Z,15.187988
2018-09-01T06:59:38.447Z,15.137634
2018-09-01T07:00:54.526Z,15.167847
2018-09-01T07:02:10.576Z,15.177917
2018-09-01T07:03:26.500Z,15.228271
2018-09-01T07:04:42.474Z,15.107422
2018-09-01T07:05:58.676Z,15.036926
2018-09-01T07:07:14.664Z,15.137634
2018-09-01T07:08:30.606Z,15.137634
2018-09-01T07:09:46.606Z,15.167847
2018-09-01T07:11:02.621Z,15.046997
2018-09-01T07:12:18.714Z,15.067139
2018-09-01T07:13:34.853Z,15.036926
2018-09-01T07:14:50.827Z,15.097351
2018-09-01T07:16:06.908Z,15.067139
2018-09-01T07:17:22.990Z,15.077209
2018-09-01T07:18:38.934Z,15.077209
2018-09-01T07:19:54.974Z,15.067139
2018-09-01T07:21:10.971Z,15.016785
2018-09-01T07:24:07.449Z,15.077209
2018-09-01T07:25:23.387Z,15.117493
2018-09-01T07:26:39.343Z,15.067139
2018-09-01T07:27:55.479Z,15.107422
2018-09-01T07:29:11.456Z,15.147705
2018-09-01T07:30:27.628Z,15.248413
2018-09-01T07:31:43.520Z,15.218201
2018-09-01T07:32:59.589Z,15.117493
2018-09-01T07:34:15.782Z,15.177917
2018-09-01T07:35:32.169Z,15.117493
2018-09-01T07:36:48.312Z,15.218201
2018-09-01T07:38:04.314Z,15.268555
2018-09-01T07:39:20.595Z,15.288696
2018-09-01T07:40:36.690Z,15.268555
2018-09-01T07:41:53.494Z,15.147705
2018-09-01T07:43:09.974Z,15.218201
2018-09-01T07:44:26.047Z,15.187988
2018-09-01T07:45:42.103Z,15.218201
2018-09-01T07:46:58.219Z,15.248413
2018-09-01T07:52:51.693Z,15.298767
2018-09-01T07:54:07.696Z,15.288696
2018-09-01T07:55:23.983Z,15.318909
2018-09-01T07:56:39.958Z,15.349121
2018-09-01T07:57:55.943Z,15.369263
2018-09-01T07:59:12.074Z,15.409546
2018-09-01T08:00:28.027Z,15.359192
2018-09-01T08:01:44.026Z,15.359192
2018-09-01T08:03:00.129Z,15.389404
2018-09-01T08:04:16.103Z,15.409546
2018-09-01T08:05:32.152Z,15.369263
2018-09-01T08:06:48.217Z,15.429688
2018-09-01T08:08:04.138Z,15.409546
2018-09-01T08:09:20.246Z,15.409546
2018-09-01T08:10:36.190Z,15.288696
2018-09-01T08:11:52.160Z,15.369263
2018-09-01T08:13:08.173Z,15.449829
2018-09-01T08:14:24.297Z,15.449829
2018-09-01T08:15:40.271Z,15.449829
2018-09-01T08:16:56.438Z,15.469971
2018-09-01T08:18:12.496Z,15.500183
2018-09-01T08:19:28.564Z,15.469971
2018-09-01T08:20:44.587Z,15.449829
2018-09-01T08:22:00.669Z,15.500183
2018-09-01T08:23:16.729Z,15.480042
2018-09-01T08:24:32.758Z,15.520325
2018-09-01T08:25:48.723Z,15.510254
2018-09-01T08:27:04.808Z,15.540466
2018-09-01T08:28:20.785Z,15.59082
2018-09-01T08:29:36.713Z,15.671387
2018-09-01T08:30:53.020Z,15.621033
2018-09-01T08:32:08.985Z,15.661316
2018-09-01T08:33:25.075Z,15.651245
2018-09-01T08:34:41.235Z,15.701599
2018-09-01T08:35:57.312Z,15.701599
2018-09-01T08:37:13.223Z,15.701599
2018-09-01T08:38:29.288Z,15.621033
2018-09-01T08:39:45.267Z,15.651245
2018-09-01T08:41:01.377Z,15.691528
2018-09-01T08:42:17.384Z,15.721741
2018-09-01T08:43:33.309Z,15.751953
2018-09-01T08:44:49.414Z,15.671387
2018-09-01T08:46:05.437Z,15.762024
2018-09-01T08:47:21.491Z,15.751953
2018-09-01T08:48:37.539Z,15.751953
2018-09-01T08:51:34.486Z,15.782166
2018-09-01T08:52:50.421Z,15.721741
2018-09-01T08:54:06.514Z,15.762024
2018-09-01T08:55:22.454Z,15.751953
2018-09-01T08:56:38.506Z,15.691528
2018-09-01T08:57:54.590Z,15.691528
2018-09-01T08:59:10.511Z,15.691528
2018-09-01T09:00:26.613Z,15.691528
2018-09-01T09:01:42.633Z,15.621033
2018-09-01T09:02:58.582Z,15.661316
2018-09-01T09:04:14.487Z,15.661316
2018-09-01T09:05:30.442Z,15.631104
2018-09-01T09:06:46.386Z,15.701599
2018-09-01T09:08:02.585Z,15.621033
2018-09-01T09:09:18.537Z,15.600891
2018-09-01T09:10:34.647Z,15.600891
2018-09-01T09:11:50.646Z,15.59082
2018-09-01T09:13:06.606Z,15.480042
2018-09-01T09:14:22.614Z,15.520325
2018-09-01T09:15:38.535Z,15.540466
2018-09-01T09:18:35.486Z,15.570679
2018-09-01T09:19:51.404Z,15.600891
2018-09-01T09:21:08.490Z,15.369263
2018-09-01T09:22:24.941Z,15.409546
2018-09-01T09:23:40.950Z,15.429688
2018-09-01T09:24:57.015Z,15.480042
2018-09-01T09:26:16.989Z,15.369263
2018-09-01T09:27:32.935Z,15.409546
2018-09-01T09:28:48.992Z,15.359192
2018-09-01T09:30:04.949Z,15.359192
2018-09-01T09:31:22.329Z,15.429688
2018-09-01T09:32:39.011Z,15.349121
2018-09-01T09:33:54.936Z,15.298767
2018-09-01T09:35:10.934Z,15.328979
2018-09-01T09:36:26.913Z,15.349121
2018-09-01T09:37:42.998Z,15.429688
2018-09-01T09:38:58.960Z,15.369263
2018-09-01T09:40:14.973Z,15.439758
2018-09-01T09:41:31.000Z,15.359192
2018-09-01T09:42:47.030Z,15.409546
2018-09-01T09:44:02.997Z,15.328979
2018-09-01T09:45:18.986Z,15.429688
2018-09-01T09:46:34.928Z,15.409546
2018-09-01T09:47:50.955Z,15.449829
2018-09-01T09:49:07.006Z,15.469971
2018-09-01T09:50:22.995Z,15.409546
2018-09-01T09:51:39.111Z,15.429688
2018-09-01T09:52:55.249Z,15.298767
2018-09-01T09:54:11.231Z,15.429688
2018-09-01T09:57:08.198Z,15.369263
2018-09-01T09:58:24.225Z,15.429688
2018-09-01T09:59:40.134Z,15.359192
2018-09-01T10:00:56.214Z,15.359192
2018-09-01T10:02:12.138Z,15.369263
2018-09-01T10:03:28.119Z,15.540466
2018-09-01T10:04:44.050Z,15.550537
2018-09-01T10:06:00.078Z,15.621033
2018-09-01T10:07:16.204Z,15.59082
2018-09-01T10:08:32.132Z,15.500183
2018-09-01T10:09:48.080Z,15.510254
2018-09-01T10:11:04.228Z,15.510254
2018-09-01T10:12:20.186Z,15.570679
2018-09-01T10:13:36.214Z,15.59082
2018-09-01T10:14:52.160Z,15.651245
2018-09-01T10:16:08.130Z,15.691528
2018-09-01T10:17:24.174Z,15.661316
2018-09-01T10:18:40.124Z,15.671387
2018-09-01T10:19:56.229Z,15.701599
2018-09-01T10:21:12.139Z,15.812378
2018-09-01T10:22:28.119Z,15.721741
2018-09-01T10:23:44.139Z,15.600891
2018-09-01T10:25:00.157Z,15.691528
2018-09-01T10:26:16.230Z,15.651245
2018-09-01T10:27:32.335Z,15.691528
2018-09-01T10:28:48.312Z,15.721741
2018-09-01T10:30:04.422Z,15.731812
2018-09-01T10:31:20.513Z,15.731812
2018-09-01T10:32:36.652Z,15.751953
2018-09-01T10:35:33.425Z,15.83252
2018-09-01T10:36:49.491Z,15.83252
2018-09-01T10:38:05.442Z,15.812378
2018-09-01T10:39:21.532Z,15.882874
2018-09-01T10:40:37.566Z,15.84259
2018-09-01T10:41:53.753Z,15.882874
2018-09-01T10:43:09.793Z,15.913086
2018-09-01T10:44:25.918Z,15.802307
2018-09-01T10:45:41.964Z,15.84259
2018-09-01T10:46:57.951Z,15.802307
2018-09-01T10:48:14.073Z,15.812378
2018-09-01T10:49:29.995Z,15.872803
2018-09-01T10:50:46.111Z,15.943298
2018-09-01T10:52:02.396Z,15.993652
2018-09-01T10:53:18.384Z,15.943298
2018-09-01T10:54:34.337Z,15.882874
2018-09-01T10:55:50.406Z,15.913086
2018-09-01T10:57:06.372Z,15.882874
2018-09-01T10:58:22.325Z,15.913086
2018-09-01T10:59:38.428Z,16.003723
2018-09-01T11:00:54.267Z,16.054077
2018-09-01T11:02:10.305Z,15.943298
2018-09-01T11:03:26.296Z,16.023865
2018-09-01T11:04:42.277Z,16.064148
2018-09-01T11:05:58.284Z,16.054077
2018-09-01T11:07:14.247Z,16.054077
2018-09-01T11:08:30.204Z,16.023865
2018-09-01T11:09:46.158Z,15.872803
2018-09-01T11:11:02.123Z,15.882874
2018-09-01T11:12:18.222Z,15.872803
2018-09-01T11:13:35.219Z,15.943298
2018-09-01T11:14:51.167Z,16.023865
2018-09-01T11:16:07.202Z,16.033936
2018-09-01T11:17:23.257Z,15.993652
2018-09-01T11:18:39.365Z,16.023865
2018-09-01T11:19:55.278Z,16.023865
2018-09-01T11:21:11.294Z,15.983582
2018-09-01T11:22:27.212Z,15.96344
2018-09-01T11:23:43.180Z,15.983582
2018-09-01T11:24:59.062Z,15.983582
2018-09-01T11:26:15.315Z,16.023865
2018-09-01T11:27:31.518Z,16.033936
2018-09-01T11:28:47.332Z,16.064148
2018-09-01T11:30:03.318Z,16.033936
2018-09-01T11:31:19.299Z,16.064148
2018-09-01T11:32:35.298Z,16.054077
2018-09-01T11:33:51.342Z,15.96344
2018-09-01T11:35:07.322Z,15.923157
2018-09-01T11:36:23.369Z,15.993652
2018-09-01T11:37:39.488Z,16.003723
2018-09-01T11:38:55.455Z,16.104431
2018-09-01T11:40:11.900Z,16.164856
2018-09-01T11:41:28.004Z,16.174927
2018-09-01T11:42:44.090Z,16.124573
2018-09-01T11:44:00.025Z,16.09436
2018-09-01T11:45:15.978Z,16.124573
2018-09-01T11:46:32.012Z,16.174927
2018-09-01T11:47:48.049Z,16.164856
2018-09-01T11:49:04.013Z,16.104431
2018-09-01T11:50:19.991Z,16.09436
2018-09-01T11:51:36.122Z,16.124573
2018-09-01T11:52:52.112Z,16.124573
2018-09-01T11:54:08.259Z,16.134644
2018-09-01T11:55:24.319Z,16.235352
2018-09-01T11:56:40.339Z,16.174927
2018-09-01T11:57:56.428Z,16.164856
2018-09-01T11:59:12.464Z,16.124573
2018-09-01T12:00:28.516Z,16.124573
2018-09-01T12:01:44.617Z,16.104431
2018-09-01T12:03:00.749Z,16.124573
2018-09-01T12:04:16.787Z,16.164856
2018-09-01T12:05:32.815Z,16.134644
2018-09-01T12:06:48.909Z,16.09436
2018-09-01T12:08:04.886Z,16.023865
2018-09-01T12:09:21.011Z,16.003723
2018-09-01T12:10:37.081Z,16.08429
2018-09-01T12:11:53.078Z,16.064148
2018-09-01T12:13:09.180Z,16.164856
2018-09-01T12:14:25.529Z,16.134644
2018-09-01T12:15:41.504Z,16.08429
2018-09-01T12:16:57.525Z,16.134644
2018-09-01T12:18:13.516Z,16.174927
2018-09-01T12:19:29.527Z,16.124573
2018-09-01T12:20:45.638Z,16.124573
2018-09-01T12:22:01.747Z,16.09436
2018-09-01T12:24:58.441Z,16.08429
2018-09-01T12:26:14.361Z,16.124573
2018-09-01T12:27:30.339Z,16.09436
2018-09-01T12:28:46.432Z,16.174927
2018-09-01T12:30:02.445Z,16.184998
2018-09-01T12:31:18.578Z,16.184998
2018-09-01T12:32:34.714Z,16.023865
2018-09-01T12:33:50.625Z,15.983582
2018-09-01T12:35:06.718Z,16.08429
2018-09-01T12:36:22.860Z,16.08429
2018-09-01T12:37:38.691Z,16.064148
2018-09-01T12:38:54.664Z,16.134644
2018-09-01T12:40:10.639Z,16.104431
2018-09-01T12:41:26.629Z,16.164856
2018-09-01T12:42:42.657Z,16.205139
2018-09-01T12:43:58.611Z,16.305847
2018-09-01T12:45:14.579Z,16.235352
2018-09-01T12:46:30.710Z,16.285706
2018-09-01T12:47:46.719Z,16.275635
2018-09-01T12:49:02.781Z,16.255493
2018-09-01T12:50:18.910Z,16.255493
2018-09-01T12:51:34.980Z,16.305847
2018-09-01T12:52:50.960Z,16.315918
2018-09-01T12:54:06.939Z,16.285706
2018-09-01T12:55:22.907Z,16.305847
2018-09-01T12:56:38.922Z,16.285706
2018-09-01T12:57:55.064Z,16.305847
2018-09-01T12:59:11.069Z,16.315918
2018-09-01T13:00:27.026Z,16.366272
2018-09-01T13:01:42.986Z,16.406555
2018-09-01T13:02:58.993Z,16.426697
2018-09-01T13:04:15.033Z,16.46698
2018-09-01T13:05:31.064Z,16.567688
2018-09-01T13:06:47.138Z,16.537476
2018-09-01T13:08:03.304Z,16.487122
2018-09-01T13:09:19.338Z,16.487122
2018-09-01T13:10:35.395Z,16.497192
2018-09-01T13:11:51.402Z,16.46698
2018-09-01T13:13:07.375Z,16.456909
2018-09-01T13:14:23.638Z,16.507263
2018-09-01T13:15:39.714Z,16.507263
2018-09-01T13:16:55.626Z,16.46698
2018-09-01T13:18:11.709Z,16.537476
2018-09-01T13:19:27.714Z,16.58783
2018-09-01T13:20:43.758Z,16.567688
2018-09-01T13:21:59.820Z,16.537476
2018-09-01T13:23:15.750Z,16.487122
2018-09-01T13:24:31.856Z,16.497192
2018-09-01T13:25:48.054Z,16.396484
2018-09-01T13:27:04.000Z,16.406555
2018-09-01T13:28:20.007Z,16.396484
2018-09-01T13:29:36.188Z,16.456909
2018-09-01T13:30:52.171Z,16.507263
2018-09-01T13:32:08.160Z,16.577759
2018-09-01T13:33:24.101Z,16.497192
2018-09-01T13:34:40.032Z,16.487122
2018-09-01T13:35:56.148Z,16.456909
2018-09-01T13:37:12.336Z,16.497192
2018-09-01T13:38:28.277Z,16.537476
2018-09-01T13:39:44.218Z,16.507263
2018-09-01T13:41:00.154Z,16.537476
2018-09-01T13:42:16.246Z,16.507263
2018-09-01T13:43:32.293Z,16.507263
2018-09-01T13:44:48.289Z,16.547546
2018-09-01T13:47:45.854Z,16.567688
2018-09-01T13:49:01.912Z,16.58783
2018-09-01T13:50:17.885Z,16.537476
2018-09-01T13:51:33.856Z,16.46698
2018-09-01T13:52:49.963Z,16.436768
2018-09-01T13:54:05.954Z,16.507263
2018-09-01T13:55:22.021Z,16.497192
2018-09-01T13:56:37.969Z,16.456909
2018-09-01T13:57:53.953Z,16.46698
2018-09-01T13:59:09.963Z,16.507263
2018-09-01T14:00:25.941Z,16.456909
2018-09-01T14:01:41.934Z,16.436768
2018-09-01T14:02:58.000Z,16.33606
2018-09-01T14:04:14.016Z,16.315918
2018-09-01T14:05:30.136Z,16.366272
2018-09-01T14:06:46.231Z,16.386414
2018-09-01T14:08:02.196Z,16.366272
2018-09-01T14:09:18.301Z,16.386414
2018-09-01T14:10:34.283Z,16.285706
2018-09-01T14:11:50.294Z,16.305847
2018-09-01T14:13:06.353Z,16.305847
2018-09-01T14:14:22.505Z,16.356201
2018-09-01T14:15:38.514Z,16.366272
2018-09-01T14:16:54.469Z,16.356201
2018-09-01T14:18:10.668Z,16.33606
2018-09-01T14:19:26.638Z,16.356201
2018-09-01T14:20:42.581Z,16.356201
2018-09-01T14:21:58.563Z,16.406555
2018-09-01T14:23:14.587Z,16.255493
2018-09-01T14:24:30.659Z,16.275635
2018-09-01T14:25:46.713Z,16.305847
2018-09-01T14:27:02.759Z,16.305847
2018-09-01T14:28:18.773Z,16.285706
2018-09-01T14:29:34.760Z,16.386414
2018-09-01T14:30:50.800Z,16.285706
2018-09-01T14:32:06.758Z,16.305847
2018-09-01T14:33:22.773Z,16.275635
2018-09-01T14:34:38.866Z,16.315918
2018-09-01T14:35:54.816Z,16.33606
2018-09-01T14:37:10.771Z,16.305847
2018-09-01T14:38:26.769Z,16.21521
2018-09-01T14:39:42.793Z,16.235352
2018-09-01T14:40:58.834Z,16.275635
2018-09-01T14:42:14.956Z,16.21521
2018-09-01T14:43:31.008Z,16.235352
2018-09-01T14:47:43.785Z,16.356201
2018-09-01T14:48:59.895Z,16.33606
2018-09-01T14:50:15.899Z,16.33606
2018-09-01T14:51:32.040Z,16.305847
2018-09-01T14:52:48.148Z,16.245422
2018-09-01T14:54:04.573Z,16.245422
2018-09-01T14:55:20.536Z,16.245422
2018-09-01T14:56:36.663Z,16.245422
2018-09-01T14:57:52.620Z,16.21521
2018-09-01T14:59:09.183Z,16.235352
2018-09-01T15:00:25.127Z,16.205139